createdAt,value
2018-11-29T00:00:00.590Z,101252.03
2018-11-29T00:02:33.190Z,101259.17
2018-11-29T00:05:02.226Z,101264.27
2018-11-29T00:07:31.416Z,101251.73
2018-11-29T00:09:59.843Z,101251.20
2018-11-29T00:12:29.537Z,101250.22
2018-11-29T00:14:58.338Z,101236.09
2018-11-29T00:17:27.587Z,101187.70
2018-11-29T00:19:58.580Z,101235.25
2018-11-29T00:22:27.886Z,101242.00
2018-11-29T00:24:56.570Z,101244.05
2018-11-29T00:27:25.717Z,101228.53
2018-11-29T00:29:54.875Z,101229.45
2018-11-29T00:32:23.513Z,101238.55
2018-11-29T00:34:53.267Z,101238.00
2018-11-29T00:37:21.870Z,101255.13
2018-11-29T00:39:50.721Z,101237.97
2018-11-29T00:42:20.439Z,101233.28
2018-11-29T00:44:49.719Z,101232.41
2018-11-29T00:48:29.003Z,101227.46
2018-11-29T00:50:58.586Z,101221.80
2018-11-29T00:53:27.974Z,101211.69
2018-11-29T00:55:59.977Z,101214.45
2018-11-29T00:58:28.591Z,101220.70
2018-11-29T01:00:57.379Z,101221.32
2018-11-29T01:03:26.425Z,101225.05
2018-11-29T01:05:55.948Z,101225.89
2018-11-29T01:08:26.256Z,101228.70
2018-11-29T01:10:56.726Z,101243.03
2018-11-29T01:13:26.888Z,101213.44
2018-11-29T01:15:57.854Z,101227.98
2018-11-29T01:18:31.929Z,101219.86
2018-11-29T01:21:00.866Z,101224.45
2018-11-29T01:23:29.251Z,101232.70
2018-11-29T01:25:58.378Z,101230.28
2018-11-29T01:28:28.191Z,101223.40
2018-11-29T01:30:56.966Z,101228.45
2018-11-29T01:33:26.045Z,101233.30
2018-11-29T01:35:55.160Z,101231.82
2018-11-29T01:38:23.770Z,101233.41
2018-11-29T01:40:53.383Z,101236.20
2018-11-29T01:43:21.851Z,101225.20
2018-11-29T01:45:52.604Z,101121.53
2018-11-29T01:48:23.016Z,101237.75
2018-11-29T01:50:51.435Z,101245.08
2018-11-29T01:53:20.005Z,101231.00
2018-11-29T01:55:50.503Z,101240.00
2018-11-29T01:58:18.978Z,101235.88
2018-11-29T02:00:49.174Z,101240.64
2018-11-29T02:03:19.514Z,101238.23
2018-11-29T02:05:48.049Z,101225.66
2018-11-29T02:08:16.400Z,101229.77
2018-11-29T02:10:50.984Z,101233.98
2018-11-29T02:13:20.878Z,101232.55
2018-11-29T02:15:53.321Z,101229.20
2018-11-29T02:18:23.848Z,101230.17
2018-11-29T02:20:52.810Z,101222.07
2018-11-29T02:23:21.472Z,101224.23
2018-11-29T02:41:03.365Z,101202.25
2018-11-29T02:43:31.768Z,101197.42
2018-11-29T02:46:01.589Z,101187.40
2018-11-29T02:48:32.102Z,101175.45
2018-11-29T02:51:01.242Z,101180.19
2018-11-29T02:53:30.555Z,101193.98
2018-11-29T02:55:58.871Z,101189.06
2018-11-29T02:58:46.696Z,101192.42
2018-11-29T03:01:15.873Z,101185.28
2018-11-29T03:03:44.401Z,101189.17
2018-11-29T03:06:15.329Z,101186.81
2018-11-29T03:08:45.629Z,101184.83
2018-11-29T03:11:15.146Z,101178.57
2018-11-29T03:13:45.115Z,101184.08
2018-11-29T03:16:15.851Z,101174.77
2018-11-29T03:18:46.520Z,101173.56
2018-11-29T03:21:17.463Z,101165.36
2018-11-29T03:23:49.394Z,101170.66
2018-11-29T03:26:20.073Z,101172.25
2018-11-29T03:28:49.581Z,101174.67
2018-11-29T03:31:18.350Z,101170.20
2018-11-29T03:33:46.755Z,101178.88
2018-11-29T03:36:17.665Z,101171.24
2018-11-29T03:38:46.110Z,101175.23
2018-11-29T03:41:14.419Z,101173.55
2018-11-29T03:43:42.706Z,101180.11
2018-11-29T03:46:14.634Z,101180.47
2018-11-29T03:48:44.703Z,101178.18
2018-11-29T03:51:13.397Z,101180.23
2018-11-29T03:53:41.752Z,101178.55
2018-11-29T03:56:10.515Z,101176.02
2018-11-29T03:58:39.040Z,101160.75
2018-11-29T04:01:07.980Z,101181.83
2018-11-29T04:03:36.438Z,101172.22
2018-11-29T04:06:07.315Z,101177.91
2018-11-29T04:08:35.608Z,101175.30
2018-11-29T04:11:03.970Z,101161.16
2018-11-29T04:13:32.193Z,101162.80
2018-11-29T04:16:03.088Z,101161.26
2018-11-29T04:19:20.883Z,101163.78
2018-11-29T04:21:49.599Z,101164.62
2018-11-29T04:24:20.047Z,101163.07
2018-11-29T04:26:50.011Z,101151.95
2018-11-29T04:29:25.123Z,101155.31
2018-11-29T04:31:56.745Z,101167.17
2018-11-29T04:34:25.672Z,101151.34
2018-11-29T04:37:01.535Z,101147.95
2018-11-29T04:39:30.399Z,101133.09
2018-11-29T04:41:58.994Z,101085.34
2018-11-29T04:44:28.127Z,101132.00
2018-11-29T04:46:57.007Z,101136.11
2018-11-29T04:49:25.876Z,101143.84
2018-11-29T04:51:54.767Z,101147.59
2018-11-29T04:54:25.356Z,101138.03
2018-11-29T04:56:58.233Z,101135.64
2018-11-29T04:59:31.632Z,101142.02
2018-11-29T05:02:06.180Z,101146.98
2018-11-29T05:04:35.811Z,101147.95
2018-11-29T05:07:04.215Z,101133.94
2018-11-29T05:09:32.613Z,101136.83
2018-11-29T05:12:03.619Z,101133.20
2018-11-29T05:14:32.153Z,101128.25
2018-11-29T05:17:00.559Z,101121.13
2018-11-29T05:19:29.819Z,101117.98
2018-11-29T05:21:58.481Z,101123.86
2018-11-29T05:24:28.355Z,101113.15
2018-11-29T05:26:57.949Z,101116.18
2018-11-29T05:29:27.207Z,101121.23
2018-11-29T05:31:56.503Z,101112.19
2018-11-29T05:34:26.304Z,101115.80
2018-11-29T05:36:55.376Z,101110.38
2018-11-29T05:39:27.022Z,101107.72
2018-11-29T05:41:59.561Z,101106.25
2018-11-29T05:44:32.625Z,101111.34
2018-11-29T05:47:03.778Z,101110.49
2018-11-29T05:49:36.837Z,101114.59
2018-11-29T05:52:06.102Z,101116.29
2018-11-29T05:54:37.832Z,101118.31
2018-11-29T05:57:09.588Z,101111.08
2018-11-29T05:59:41.561Z,101112.89
2018-11-29T06:02:14.481Z,101106.98
2018-11-29T06:04:46.226Z,101112.41
2018-11-29T06:07:15.468Z,101107.58
2018-11-29T06:09:47.171Z,101110.23
2018-11-29T06:12:16.595Z,101115.66
2018-11-29T06:14:50.303Z,101108.20
2018-11-29T06:17:27.548Z,101105.28
2018-11-29T06:19:58.048Z,101113.48
2018-11-29T06:22:30.545Z,101105.76
2018-11-29T06:25:05.422Z,101104.44
2018-11-29T06:27:37.292Z,101106.12
2018-11-29T06:30:15.863Z,101107.82
2018-11-29T06:32:56.938Z,101099.37
2018-11-29T06:35:29.845Z,101091.98
2018-11-29T06:40:45.678Z,101091.86
2018-11-29T06:43:18.945Z,101095.59
2018-11-29T06:45:52.852Z,101090.17
2018-11-29T06:48:26.542Z,101090.43
2018-11-29T06:51:12.508Z,101090.43
2018-11-29T06:53:50.152Z,101076.75
2018-11-29T06:56:24.981Z,101078.30
2018-11-29T06:58:58.094Z,101081.08
2018-11-29T07:01:37.768Z,101066.30
2018-11-29T07:04:14.646Z,101060.45
2018-11-29T07:07:05.452Z,101065.27
2018-11-29T07:09:41.827Z,101058.47
2018-11-29T07:12:15.403Z,101055.00
2018-11-29T07:14:50.076Z,101059.38
2018-11-29T07:17:21.703Z,101057.78
2018-11-29T07:19:55.210Z,101056.65
2018-11-29T07:22:46.591Z,101050.74
2018-11-29T07:25:29.255Z,101047.09
2018-11-29T07:28:12.374Z,101046.56
2018-11-29T07:30:47.027Z,101049.47
2018-11-29T07:33:20.269Z,101042.72
2018-11-29T07:35:52.259Z,101054.20
2018-11-29T07:41:06.310Z,101041.04
2018-11-29T07:46:09.654Z,101045.11
2018-11-29T07:51:41.977Z,101052.98
2018-11-29T07:54:20.893Z,101048.83
2018-11-29T07:56:55.044Z,101035.91
2018-11-29T07:59:24.975Z,101049.89
2018-11-29T08:01:55.273Z,101050.92
2018-11-29T08:04:28.860Z,101050.34
2018-11-29T08:06:58.564Z,101036.20
2018-11-29T08:09:27.351Z,101042.92
2018-11-29T08:11:55.784Z,101037.05
2018-11-29T08:14:26.121Z,101024.21
2018-11-29T08:16:55.033Z,101020.70
2018-11-29T08:19:23.938Z,101014.56
2018-11-29T08:21:59.479Z,101023.08
2018-11-29T08:24:28.359Z,101020.94
2018-11-29T08:26:57.801Z,101021.13
2018-11-29T08:29:34.857Z,101018.93
2018-11-29T08:32:02.238Z,101020.16
2018-11-29T08:37:06.888Z,101019.22
2018-11-29T08:39:38.035Z,101009.91
2018-11-29T08:42:06.755Z,101032.17
2018-11-29T08:44:39.093Z,101034.76
2018-11-29T08:47:20.618Z,101034.34
2018-11-29T08:49:53.613Z,101037.02
2018-11-29T08:52:22.564Z,101037.22
2018-11-29T08:54:50.840Z,101044.81
2018-11-29T08:57:26.371Z,101041.95
2018-11-29T08:59:56.987Z,101021.80
2018-11-29T09:02:28.637Z,101055.41
2018-11-29T09:05:00.317Z,101051.85
2018-11-29T09:07:34.661Z,101061.86
2018-11-29T09:12:56.027Z,101070.70
2018-11-29T09:15:25.718Z,101078.41
2018-11-29T09:17:55.673Z,101070.50
2018-11-29T09:20:27.058Z,101068.98
2018-11-29T09:22:55.607Z,101062.24
2018-11-29T09:25:24.703Z,101058.98
2018-11-29T09:27:55.077Z,101060.27
2018-11-29T09:30:32.346Z,101063.70
2018-11-29T09:33:01.413Z,101068.75
2018-11-29T09:35:32.204Z,101071.55
2018-11-29T09:38:09.749Z,101062.08
2018-11-29T09:40:43.508Z,101063.56
2018-11-29T09:43:12.925Z,101063.21
2018-11-29T09:45:47.212Z,101054.13
2018-11-29T09:48:17.984Z,101054.28
2018-11-29T09:50:49.580Z,101049.20
2018-11-29T09:53:27.775Z,101052.75
2018-11-29T09:58:53.670Z,101049.83
2018-11-29T10:01:22.645Z,101043.30
2018-11-29T10:03:51.321Z,101038.78
2018-11-29T10:06:40.583Z,101030.88
2018-11-29T10:09:15.530Z,101032.02
2018-11-29T10:11:50.480Z,101021.34
2018-11-29T10:14:32.859Z,101023.55
2018-11-29T10:17:01.541Z,101007.88
2018-11-29T10:19:31.872Z,101007.75
2018-11-29T10:22:02.044Z,101001.80
2018-11-29T10:24:32.955Z,100991.27
2018-11-29T10:27:03.759Z,100977.58
2018-11-29T10:29:44.356Z,100987.42
2018-11-29T10:32:16.795Z,100996.63
2018-11-29T10:34:46.012Z,100983.45
2018-11-29T10:37:14.532Z,100985.83
2018-11-29T10:39:46.385Z,100972.95
2018-11-29T10:42:17.415Z,100966.43
2018-11-29T10:44:45.884Z,100954.67
2018-11-29T10:47:18.105Z,100932.70
2018-11-29T10:49:48.446Z,100931.40
2018-11-29T10:52:29.121Z,100923.38
2018-11-29T10:55:00.560Z,100952.27
2018-11-29T10:57:29.498Z,100972.03
2018-11-29T11:00:06.234Z,100957.20
2018-11-29T11:02:43.093Z,100968.36
2018-11-29T11:05:15.205Z,100957.26
2018-11-29T11:07:48.315Z,100960.47
2018-11-29T11:10:18.030Z,100970.73
2018-11-29T11:13:46.117Z,100951.57
2018-11-29T11:16:15.499Z,100970.93
2018-11-29T11:18:49.392Z,100966.45
2018-11-29T11:21:30.323Z,100970.66
2018-11-29T11:24:08.444Z,100971.14
2018-11-29T11:26:52.567Z,100952.33
2018-11-29T11:29:23.816Z,100952.35
2018-11-29T11:32:11.116Z,100949.23
2018-11-29T11:34:44.027Z,100949.34
2018-11-29T11:37:18.843Z,100950.80
2018-11-29T11:39:50.085Z,100958.78
2018-11-29T11:42:19.242Z,100954.94
2018-11-29T11:44:49.203Z,100961.60
2018-11-29T11:47:18.247Z,100947.92
2018-11-29T11:49:54.221Z,100932.30
2018-11-29T11:52:22.421Z,100911.88
2018-11-29T11:54:54.833Z,100880.67
2018-11-29T11:57:24.528Z,100820.86
2018-11-29T12:05:46.541Z,100733.16
2018-11-29T12:08:17.597Z,100665.90
2018-11-29T12:10:52.701Z,100607.11
2018-11-29T12:13:50.121Z,100639.33
2018-11-29T12:16:41.319Z,100643.23
2018-11-29T12:19:34.859Z,100648.75
2018-11-29T12:27:40.761Z,100652.82
2018-11-29T12:31:13.687Z,100681.91
2018-11-29T12:33:59.385Z,100702.73
2018-11-29T12:36:35.727Z,100771.48
2018-11-29T12:39:26.162Z,100754.14
2018-11-29T12:42:03.672Z,100815.87
2018-11-29T12:44:48.249Z,100825.28
2018-11-29T12:47:20.656Z,100814.46
2018-11-29T12:52:14.695Z,100783.40
2018-11-29T12:54:56.535Z,100743.30
2018-11-29T12:57:27.822Z,100824.64
2018-11-29T12:59:57.501Z,100781.52
2018-11-29T13:02:26.776Z,100783.36
2018-11-29T13:05:01.224Z,100799.47
2018-11-29T13:09:41.587Z,100757.05
2018-11-29T13:12:11.528Z,100740.77
2018-11-29T13:14:39.907Z,100720.78
2018-11-29T13:17:10.294Z,100614.64
2018-11-29T13:19:41.181Z,100738.45
2018-11-29T13:22:12.859Z,100723.45
2018-11-29T13:24:45.132Z,100708.98
2018-11-29T13:27:24.141Z,100715.95
2018-11-29T13:30:09.615Z,100711.20
2018-11-29T13:34:48.722Z,100679.22
2018-11-29T13:37:32.372Z,100684.97
2018-11-29T13:40:28.094Z,100669.08
2018-11-29T13:45:55.594Z,100687.80
2018-11-29T13:51:14.060Z,100692.80
2018-11-29T13:53:50.809Z,100662.05
2018-11-29T13:56:20.144Z,100632.52
2018-11-29T13:58:51.496Z,100633.02
2018-11-29T14:01:26.159Z,100629.77
2018-11-29T14:03:58.425Z,100595.51
2018-11-29T14:06:27.190Z,100605.52
2018-11-29T14:08:55.847Z,100603.44
2018-11-29T14:11:27.386Z,100580.95
2018-11-29T14:14:39.699Z,100577.73
2018-11-29T14:17:15.147Z,100575.69
2018-11-29T14:19:49.980Z,100576.20
2018-11-29T14:22:24.611Z,100572.35
2018-11-29T14:25:00.545Z,100562.91
2018-11-29T14:27:31.419Z,100566.26
2018-11-29T14:29:59.965Z,100565.58
2018-11-29T14:32:29.184Z,100578.53
2018-11-29T14:34:59.012Z,100595.34
2018-11-29T14:37:31.363Z,100594.98
2018-11-29T14:40:12.763Z,100596.27
2018-11-29T14:42:43.650Z,100600.53
2018-11-29T14:45:29.770Z,100594.92
2018-11-29T14:47:59.289Z,100595.52
2018-11-29T14:50:34.667Z,100606.30
2018-11-29T14:53:16.726Z,100621.23
2018-11-29T14:55:49.846Z,100620.42
2018-11-29T14:58:22.571Z,100621.16
2018-11-29T15:01:55.610Z,100628.93
2018-11-29T15:04:26.814Z,100617.61
2018-11-29T15:09:57.110Z,100622.94
2018-11-29T15:12:27.318Z,100622.98
2018-11-29T15:17:53.138Z,100511.21
2018-11-29T15:20:27.387Z,100595.71
2018-11-29T15:22:57.283Z,100588.99
2018-11-29T15:25:25.826Z,100590.55
2018-11-29T15:27:56.911Z,100583.18
2018-11-29T15:30:28.402Z,100587.53
2018-11-29T15:33:03.566Z,100598.92
2018-11-29T15:35:33.930Z,100600.77
2018-11-29T15:38:06.935Z,100599.64
2018-11-29T15:40:43.150Z,100608.89
2018-11-29T15:43:18.364Z,100602.17
2018-11-29T15:45:57.809Z,100605.19
2018-11-29T15:48:31.409Z,100620.44
2018-11-29T15:51:02.858Z,100614.64
2018-11-29T15:53:37.794Z,100625.09
2018-11-29T15:56:07.878Z,100622.20
2018-11-29T15:58:39.178Z,100611.00
2018-11-29T16:01:09.189Z,100624.07
2018-11-29T16:03:38.796Z,100616.38
2018-11-29T16:06:19.612Z,100608.53
2018-11-29T16:08:50.766Z,100618.47
2018-11-29T16:11:24.217Z,100621.06
2018-11-29T16:14:04.763Z,100274.55
2018-11-29T16:16:46.679Z,100613.92
2018-11-29T16:19:17.653Z,100607.27
2018-11-29T16:24:28.065Z,100603.50
2018-11-29T16:30:14.654Z,100586.20
2018-11-29T16:32:45.828Z,100587.53
2018-11-29T16:35:20.830Z,100588.70
2018-11-29T16:37:53.075Z,100611.26
2018-11-29T16:40:23.291Z,100603.98
2018-11-29T16:43:05.137Z,100605.31
2018-11-29T16:45:37.343Z,100599.58
2018-11-29T16:48:06.971Z,100604.78
2018-11-29T16:50:45.056Z,100612.45
2018-11-29T16:53:22.544Z,100614.28
2018-11-29T16:55:55.085Z,100603.86
2018-11-29T17:01:27.590Z,100624.50
2018-11-29T17:04:05.305Z,100606.95
2018-11-29T17:06:37.121Z,100609.31
2018-11-29T17:09:13.530Z,100607.56
2018-11-29T17:11:51.302Z,100604.05
2018-11-29T17:14:20.904Z,100616.45
2018-11-29T17:20:23.580Z,100604.13
2018-11-29T17:23:09.733Z,100611.00
2018-11-29T17:28:36.686Z,100632.72
2018-11-29T17:31:05.974Z,100625.41
2018-11-29T17:33:37.812Z,100619.61
2018-11-29T17:39:42.275Z,100633.89
2018-11-29T17:42:12.269Z,100634.18
2018-11-29T17:44:41.423Z,100642.23
2018-11-29T17:47:14.841Z,100641.13
2018-11-29T17:49:46.482Z,100635.09
2018-11-29T17:52:24.129Z,100639.93
2018-11-29T17:54:56.196Z,100635.70
2018-11-29T17:57:30.535Z,100645.25
2018-11-29T18:00:24.162Z,100648.46
2018-11-29T18:03:09.904Z,100660.02
2018-11-29T18:05:41.621Z,100663.24
2018-11-29T18:08:11.185Z,100672.84
2018-11-29T18:10:42.372Z,100672.84
2018-11-29T18:13:25.013Z,100681.37
2018-11-29T18:15:57.622Z,100681.88
2018-11-29T18:18:29.842Z,100680.35
2018-11-29T18:21:00.429Z,100670.26
2018-11-29T18:28:32.903Z,100677.70
2018-11-29T18:31:02.625Z,100669.71
2018-11-29T18:36:17.033Z,100657.05
2018-11-29T18:38:49.549Z,100660.87
2018-11-29T18:41:28.776Z,100660.27
2018-11-29T18:43:57.719Z,100663.83
2018-11-29T18:46:28.411Z,100665.46
2018-11-29T18:48:58.470Z,100664.98
2018-11-29T18:51:27.813Z,100665.84
2018-11-29T18:54:00.052Z,100661.48
2018-11-29T18:56:30.678Z,100655.06
2018-11-29T18:59:00.185Z,100651.68
2018-11-29T19:01:29.260Z,100645.68
2018-11-29T19:03:57.662Z,100658.08
2018-11-29T19:06:30.406Z,100648.33
2018-11-29T19:09:00.904Z,100610.05
2018-11-29T19:11:31.622Z,100638.43
2018-11-29T19:14:02.941Z,100634.28
2018-11-29T19:16:43.620Z,100636.83
2018-11-29T19:19:13.785Z,100633.33
2018-11-29T19:21:52.469Z,100618.27
2018-11-29T19:24:30.835Z,100568.49
2018-11-29T19:27:03.541Z,100621.36
2018-11-29T19:29:33.227Z,100626.98
2018-11-29T19:32:07.392Z,100626.13
2018-11-29T19:34:57.758Z,100621.00
2018-11-29T19:37:26.558Z,100637.39
2018-11-29T19:39:55.850Z,100638.89
2018-11-29T19:42:28.298Z,100627.47
2018-11-29T19:46:25.517Z,100612.33
2018-11-29T19:48:55.842Z,100621.48
2018-11-29T19:51:26.106Z,100624.30
2018-11-29T19:53:56.138Z,100632.06
2018-11-29T19:56:29.260Z,100631.78
2018-11-29T19:59:01.551Z,100624.50
2018-11-29T20:01:33.041Z,100644.16
2018-11-29T20:04:04.797Z,100646.64
2018-11-29T20:06:40.595Z,100647.50
2018-11-29T20:09:10.241Z,100638.41
2018-11-29T20:11:42.888Z,100635.69
2018-11-29T20:14:15.066Z,100638.18
2018-11-29T20:16:46.305Z,100642.47
2018-11-29T20:19:25.690Z,100641.55
2018-11-29T20:22:03.196Z,100639.44
2018-11-29T20:24:39.596Z,100638.35
2018-11-29T20:27:24.480Z,100647.45
2018-11-29T20:30:00.118Z,100640.80
2018-11-29T20:32:40.026Z,100628.71
2018-11-29T20:36:17.126Z,100618.56
2018-11-29T20:39:11.092Z,100628.80
2018-11-29T20:41:44.119Z,100632.56
2018-11-29T20:44:22.566Z,100622.20
2018-11-29T20:47:07.749Z,100619.70
2018-11-29T20:49:45.376Z,100604.90
2018-11-29T20:52:21.395Z,100618.08
2018-11-29T20:55:05.230Z,100608.34
2018-11-29T20:57:48.847Z,100603.27
2018-11-29T21:00:27.677Z,100600.13
2018-11-29T21:03:07.986Z,100604.28
2018-11-29T21:05:45.486Z,100603.57
2018-11-29T21:10:59.319Z,100604.47
2018-11-29T21:13:43.658Z,100614.77
2018-11-29T21:16:17.386Z,100625.03
2018-11-29T21:18:57.197Z,100636.66
2018-11-29T21:21:36.739Z,100637.76
2018-11-29T21:24:15.163Z,100647.23
2018-11-29T21:27:02.451Z,100644.04
2018-11-29T21:29:41.217Z,100634.05
2018-11-29T21:32:13.295Z,100628.39
2018-11-29T21:34:53.161Z,100631.73
2018-11-29T21:37:25.478Z,100627.25
2018-11-29T21:40:12.058Z,100639.46
2018-11-29T21:43:01.118Z,100644.70
2018-11-29T21:45:48.216Z,100652.91
2018-11-29T21:48:33.378Z,100646.63
2018-11-29T21:51:24.048Z,100652.57
2018-11-29T21:54:10.156Z,100637.69
2018-11-29T21:57:01.669Z,100647.73
2018-11-29T21:59:41.086Z,100648.75
2018-11-29T22:02:16.103Z,100599.98
2018-11-29T22:04:53.742Z,100646.50
2018-11-29T22:07:40.569Z,100635.24
2018-11-29T22:10:13.627Z,100636.93
2018-11-29T22:12:51.637Z,100623.61
2018-11-29T22:15:23.156Z,100625.86
2018-11-29T22:23:39.374Z,100616.73
2018-11-29T22:26:10.864Z,100622.25
2018-11-29T22:28:40.578Z,100630.16
2018-11-29T22:31:12.205Z,100631.59
2018-11-29T22:33:40.517Z,100636.56
2018-11-29T22:36:09.369Z,100637.95
2018-11-29T22:38:38.128Z,100638.22
2018-11-29T22:41:07.273Z,100637.16
2018-11-29T22:43:36.606Z,100630.00
2018-11-29T22:46:15.992Z,100632.53
2018-11-29T22:48:49.639Z,100626.66
2018-11-29T22:51:32.603Z,100613.33
2018-11-29T22:54:07.610Z,100617.22
2018-11-29T22:56:36.626Z,100621.98
2018-11-29T22:59:05.526Z,100624.16
2018-11-29T23:01:34.052Z,100620.70
2018-11-29T23:04:04.688Z,100618.34
2018-11-29T23:06:33.784Z,100623.94
2018-11-29T23:09:04.232Z,100559.02
2018-11-29T23:11:34.619Z,100623.26
2018-11-29T23:14:05.119Z,100617.68
2018-11-29T23:16:33.981Z,100608.43
2018-11-29T23:19:03.095Z,100611.13
2018-11-29T23:21:35.004Z,100604.44
2018-11-29T23:24:04.807Z,100608.19
2018-11-29T23:26:33.152Z,100618.27
2018-11-29T23:29:02.251Z,100599.27
2018-11-29T23:31:32.508Z,100598.75
2018-11-29T23:34:02.516Z,100593.59
2018-11-29T23:36:33.158Z,100611.59
2018-11-29T23:39:05.998Z,100611.67
2018-11-29T23:41:39.009Z,100618.03
2018-11-29T23:44:08.241Z,100618.36
2018-11-29T23:46:38.405Z,100614.44
2018-11-29T23:49:09.743Z,100624.31
2018-11-29T23:51:38.813Z,100628.58
2018-11-29T23:54:12.485Z,100620.89
2018-11-29T23:56:41.100Z,100621.95
2018-11-29T23:59:11.357Z,100620.45
